Time;durP1;ratioP1;P1;durP2;ratioP2;P2;SDS_P1;SDS_P2;PMS_P1;PMS_P2;Temp;Humidity;BMP_temperature;BMP_pressure;BME280_temperature;BME280_humidity;BME280_pressure;Samples;Min_cycle;Max_cycle;Signal;HPM_P1;HPM_P2
2023/06/12 00:03:06;;;;;;;5.27;4.00;;;26.40;57.00;;;;;;10120538;28;20056;-69
2023/06/12 00:07:57;;;;;;;6.15;3.97;;;26.30;56.90;;;;;;10116588;28;20043;-70
2023/06/12 00:12:48;;;;;;;5.63;3.53;;;26.10;57.20;;;;;;10124138;28;20020;-67
2023/06/12 00:17:40;;;;;;;6.13;3.80;;;26.00;57.30;;;;;;10123265;28;20020;-69
2023/06/12 00:22:30;;;;;;;5.85;3.95;;;26.00;57.50;;;;;;10122899;28;20045;-68
2023/06/12 00:27:21;;;;;;;6.40;4.70;;;25.90;57.60;;;;;;10112677;28;20023;-68
2023/06/12 00:32:11;;;;;;;4.38;3.88;;;25.90;57.90;;;;;;10124696;28;20490;-69
2023/06/12 00:37:02;;;;;;;4.53;4.10;;;25.80;58.00;;;;;;10129478;28;20028;-70
2023/06/12 00:41:53;;;;;;;6.05;4.00;;;25.80;58.00;;;;;;10121592;28;20028;-72
2023/06/12 00:46:44;;;;;;;4.72;3.92;;;25.70;58.30;;;;;;10120213;28;20032;-68
2023/06/12 00:51:35;;;;;;;5.43;3.55;;;25.70;59.00;;;;;;10125164;28;20498;-67
2023/06/12 00:56:26;;;;;;;6.75;3.90;;;25.60;58.50;;;;;;10129064;28;20371;-72
2023/06/12 01:01:20;;;;;;;5.50;4.10;;;25.70;58.50;;;;;;10116176;28;20049;-67
2023/06/12 01:06:16;;;;;;;6.30;4.17;;;25.60;58.70;;;;;;10119592;28;20066;-69
2023/06/12 01:11:09;;;;;;;6.60;4.35;;;25.50;58.90;;;;;;10136580;28;20205;-69
2023/06/12 01:16:01;;;;;;;6.28;3.97;;;25.30;59.30;;;;;;10121069;28;20032;-67
2023/06/12 01:20:55;;;;;;;5.20;3.75;;;25.30;59.30;;;;;;10119871;28;20567;-70
2023/06/12 01:26:26;;;;;;;6.32;4.05;;;25.10;59.60;;;;;;10114175;28;20419;-70
2023/06/12 01:31:20;;;;;;;5.00;4.07;;;25.20;59.90;;;;;;10102996;28;20028;-68
2023/06/12 01:36:15;;;;;;;7.22;3.95;;;25.00;60.00;;;;;;10123625;28;20037;-69
2023/06/12 01:41:07;;;;;;;7.53;3.95;;;24.70;60.60;;;;;;10118202;28;20060;-68
2023/06/12 01:45:58;;;;;;;5.78;4.00;;;24.30;61.20;;;;;;10115509;28;20340;-71
2023/06/12 01:50:48;;;;;;;5.63;4.13;;;24.30;61.20;;;;;;10111875;28;20033;-70
2023/06/12 01:55:41;;;;;;;5.60;4.10;;;24.30;61.20;;;;;;10120385;28;20063;-70
2023/06/12 02:00:32;;;;;;;7.28;3.95;;;24.30;61.30;;;;;;10132612;28;20024;-69
2023/06/12 02:05:23;;;;;;;6.28;4.00;;;24.50;61.20;;;;;;10098728;28;20064;-68
2023/06/12 02:10:14;;;;;;;5.40;3.75;;;24.30;61.40;;;;;;10135735;28;20064;-68
2023/06/12 02:15:05;;;;;;;5.72;4.30;;;24.10;61.90;;;;;;10119088;28;20360;-69
2023/06/12 02:19:56;;;;;;;6.60;4.00;;;24.10;62.30;;;;;;10124437;28;20184;-70
2023/06/12 02:24:47;;;;;;;5.55;3.50;;;24.10;62.30;;;;;;10123948;28;20028;-70
2023/06/12 02:29:38;;;;;;;5.28;3.95;;;24.00;62.60;;;;;;10118060;28;20024;-68
2023/06/12 02:34:28;;;;;;;5.75;4.22;;;23.90;62.70;;;;;;10113837;28;20063;-69
2023/06/12 02:39:19;;;;;;;7.57;3.90;;;24.00;62.90;;;;;;10120190;28;20456;-68
2023/06/12 02:44:10;;;;;;;5.50;4.13;;;23.70;63.40;;;;;;10121728;28;20161;-68
2023/06/12 02:49:00;;;;;;;4.25;3.55;;;23.60;63.50;;;;;;10121248;28;20060;-70
2023/06/12 02:53:51;;;;;;;5.47;4.50;;;23.60;63.60;;;;;;10122755;28;20564;-73
2023/06/12 02:58:44;;;;;;;6.30;4.90;;;23.60;63.60;;;;;;10113945;28;20029;-69
2023/06/12 03:03:35;;;;;;;5.18;4.45;;;23.30;64.30;;;;;;10116869;28;20549;-71
2023/06/12 03:08:26;;;;;;;7.00;4.57;;;23.00;64.50;;;;;;10108206;28;20498;-68
2023/06/12 03:13:17;;;;;;;5.22;4.03;;;23.10;64.80;;;;;;10115535;28;20036;-68
2023/06/12 03:18:07;;;;;;;6.93;4.13;;;23.20;65.20;;;;;;10119414;28;20109;-67
2023/06/12 03:22:58;;;;;;;7.65;4.88;;;23.20;64.80;;;;;;10123111;28;20520;-68
2023/06/12 03:27:49;;;;;;;5.85;4.28;;;23.30;64.80;;;;;;10117446;28;20051;-69
2023/06/12 03:32:40;;;;;;;6.95;4.43;;;23.10;65.40;;;;;;10120790;28;20082;-67
2023/06/12 03:37:31;;;;;;;6.22;4.43;;;23.00;65.50;;;;;;10119797;28;20025;-70
2023/06/12 03:42:22;;;;;;;5.22;4.22;;;23.00;65.70;;;;;;10126250;28;20033;-67
2023/06/12 03:47:14;;;;;;;7.10;5.07;;;22.90;65.60;;;;;;10127247;28;20108;-67
2023/06/12 03:52:05;;;;;;;5.80;4.38;;;22.90;65.70;;;;;;10129224;28;20112;-72
2023/06/12 03:56:55;;;;;;;6.70;4.57;;;22.70;66.10;;;;;;10130023;28;20031;-75
2023/06/12 04:01:48;;;;;;;5.05;4.10;;;22.60;66.20;;;;;;10118172;28;20127;-70
2023/06/12 04:06:40;;;;;;;5.43;4.40;;;22.60;66.30;;;;;;10133335;28;20491;-73
2023/06/12 04:11:32;;;;;;;5.80;5.00;;;22.50;66.50;;;;;;10133945;28;20490;-73
2023/06/12 04:16:24;;;;;;;7.28;4.72;;;22.60;66.20;;;;;;10129270;28;20101;-70
2023/06/12 04:21:15;;;;;;;6.18;3.88;;;22.30;66.70;;;;;;10131323;28;20089;-69
2023/06/12 04:26:05;;;;;;;5.28;4.40;;;22.20;67.10;;;;;;10134124;28;20029;-69
2023/06/12 04:30:56;;;;;;;5.45;4.32;;;22.10;67.10;;;;;;10150159;28;20441;-74
2023/06/12 04:35:47;;;;;;;6.63;4.03;;;22.10;67.20;;;;;;10129910;28;20123;-68
2023/06/12 04:40:37;;;;;;;6.85;4.45;;;22.30;66.80;;;;;;10115711;28;20033;-69
2023/06/12 04:45:32;;;;;;;5.35;3.90;;;22.40;66.70;;;;;;10119891;28;20112;-71
2023/06/12 04:50:23;;;;;;;5.73;4.60;;;22.40;66.70;;;;;;10118537;28;20037;-68
2023/06/12 04:55:20;;;;;;;7.05;4.60;;;22.50;66.70;;;;;;10121986;28;20044;-72
2023/06/12 05:00:14;;;;;;;5.35;4.03;;;22.50;66.80;;;;;;10124015;28;20491;-68
2023/06/12 05:05:05;;;;;;;5.50;4.03;;;22.40;66.80;;;;;;10117556;28;20620;-69
2023/06/12 05:09:56;;;;;;;6.68;4.20;;;22.20;67.30;;;;;;10113109;28;20054;-71
2023/06/12 05:14:46;;;;;;;8.65;3.92;;;22.20;67.30;;;;;;10129439;28;20041;-68
2023/06/12 05:19:40;;;;;;;5.47;4.13;;;22.50;66.90;;;;;;10129445;28;20028;-67
2023/06/12 05:24:30;;;;;;;4.97;3.80;;;22.50;66.80;;;;;;10114929;28;20442;-71
2023/06/12 05:29:21;;;;;;;5.47;4.03;;;22.70;66.60;;;;;;10126274;28;20115;-67
2023/06/12 05:34:12;;;;;;;5.65;4.00;;;22.80;66.50;;;;;;10113995;28;20037;-71
2023/06/12 05:39:04;;;;;;;5.32;3.97;;;22.80;66.50;;;;;;10117363;28;20088;-71
2023/06/12 05:43:55;;;;;;;5.80;4.03;;;22.70;66.80;;;;;;10117133;28;20148;-67
2023/06/12 05:48:45;;;;;;;4.82;4.18;;;22.70;67.00;;;;;;10116936;28;20116;-68
2023/06/12 05:53:36;;;;;;;5.00;3.97;;;22.70;67.10;;;;;;10116837;28;20039;-68
2023/06/12 05:58:27;;;;;;;5.38;3.78;;;22.70;67.20;;;;;;10111274;28;20025;-67
2023/06/12 06:03:19;;;;;;;6.75;4.15;;;22.70;67.40;;;;;;10133217;28;20051;-66
2023/06/12 06:08:13;;;;;;;6.07;4.22;;;22.70;67.70;;;;;;10123831;28;20048;-67
2023/06/12 06:13:03;;;;;;;6.10;4.03;;;22.80;67.40;;;;;;10128024;28;20142;-67
2023/06/12 06:17:54;;;;;;;7.03;4.63;;;23.00;67.30;;;;;;10107187;28;20104;-67
2023/06/12 06:22:45;;;;;;;5.53;4.10;;;23.20;67.00;;;;;;10113942;28;20033;-71
2023/06/12 06:27:36;;;;;;;5.75;4.35;;;23.40;66.80;;;;;;10121260;28;20036;-70
2023/06/12 06:32:26;;;;;;;7.72;4.28;;;23.30;67.00;;;;;;10123668;28;20450;-70
2023/06/12 06:37:17;;;;;;;5.63;3.60;;;23.40;67.20;;;;;;10114903;28;20056;-67
2023/06/12 06:42:08;;;;;;;6.65;5.13;;;23.30;67.50;;;;;;10125517;28;20530;-67
2023/06/12 06:46:58;;;;;;;6.20;3.90;;;23.20;67.70;;;;;;10127370;28;20021;-68
2023/06/12 06:51:49;;;;;;;4.68;3.70;;;23.20;67.90;;;;;;10119370;28;20031;-73
2023/06/12 06:56:39;;;;;;;4.40;3.70;;;23.10;68.00;;;;;;10119283;28;20414;-71
2023/06/12 07:01:33;;;;;;;6.40;4.07;;;23.00;68.30;;;;;;10110186;28;20056;-68
2023/06/12 07:06:24;;;;;;;9.25;4.07;;;23.10;68.20;;;;;;10113570;28;20020;-68
2023/06/12 07:11:15;;;;;;;5.55;4.50;;;23.10;68.30;;;;;;10133573;28;20024;-67
2023/06/12 07:16:06;;;;;;;5.50;3.60;;;23.40;68.00;;;;;;10124319;28;20365;-68
2023/06/12 07:20:56;;;;;;;7.43;4.75;;;23.70;67.70;;;;;;10140664;28;20115;-70
2023/06/12 07:25:47;;;;;;;6.30;4.97;;;23.70;67.70;;;;;;10126520;28;20529;-70
2023/06/12 07:30:37;;;;;;;5.55;4.32;;;23.90;67.50;;;;;;10127664;28;20034;-68
2023/06/12 07:35:28;;;;;;;9.27;4.32;;;24.00;67.40;;;;;;10122857;28;20219;-68
2023/06/12 07:40:19;;;;;;;9.02;4.10;;;24.30;67.00;;;;;;10133532;28;20028;-69
2023/06/12 07:45:10;;;;;;;6.82;3.50;;;24.30;67.00;;;;;;10123841;28;20044;-68
2023/06/12 07:50:01;;;;;;;4.20;3.35;;;24.30;67.00;;;;;;10140415;28;20028;-70
2023/06/12 07:54:52;;;;;;;5.40;3.92;;;24.30;67.20;;;;;;10125147;28;20059;-75
2023/06/12 07:59:44;;;;;;;5.85;3.65;;;24.50;66.90;;;;;;10129395;28;20031;-69
2023/06/12 08:04:35;;;;;;;5.28;4.18;;;24.50;66.90;;;;;;10113337;22;20048;-67
2023/06/12 08:09:26;;;;;;;4.32;3.45;;;24.50;66.70;;;;;;10096731;28;20414;-64
2023/06/12 08:14:17;;;;;;;5.10;4.00;;;24.60;66.40;;;;;;10101799;28;20044;-65
2023/06/12 08:19:08;;;;;;;8.50;4.68;;;24.90;66.00;;;;;;10101952;28;20450;-61
2023/06/12 08:23:58;;;;;;;4.03;3.58;;;25.20;65.70;;;;;;10101569;28;20082;-61
2023/06/12 08:28:50;;;;;;;6.15;4.25;;;25.10;65.70;;;;;;10099666;28;20036;-63
2023/06/12 08:33:40;;;;;;;8.60;4.22;;;25.20;65.70;;;;;;10099237;28;20485;-62
2023/06/12 08:38:31;;;;;;;6.88;3.60;;;25.40;65.20;;;;;;10101328;28;20105;-62
2023/06/12 08:43:22;;;;;;;5.43;3.88;;;25.60;64.80;;;;;;10100532;28;20033;-61
2023/06/12 08:48:17;;;;;;;3.72;3.35;;;25.50;64.80;;;;;;10100558;28;20446;-63
2023/06/12 08:53:07;;;;;;;6.35;3.88;;;25.60;64.60;;;;;;10097399;28;20496;-65
2023/06/12 08:58:00;;;;;;;5.13;4.13;;;25.70;64.40;;;;;;10100531;28;20043;-62
2023/06/12 09:02:52;;;;;;;5.55;3.63;;;25.80;63.90;;;;;;10098588;28;20049;-59
2023/06/12 09:07:45;;;;;;;4.45;3.88;;;25.90;63.70;;;;;;10098204;28;20053;-63
2023/06/12 09:12:36;;;;;;;4.25;3.63;;;26.00;63.50;;;;;;10094093;28;20163;-64
2023/06/12 09:17:28;;;;;;;5.18;3.85;;;26.10;63.60;;;;;;10090227;28;20123;-64
2023/06/12 09:22:21;;;;;;;5.90;4.25;;;26.20;63.50;;;;;;10091757;28;20460;-61
2023/06/12 09:27:12;;;;;;;5.85;4.40;;;26.50;63.00;;;;;;10089780;28;20556;-63
2023/06/12 09:32:05;;;;;;;4.82;3.88;;;26.40;63.10;;;;;;10097130;28;20098;-62
2023/06/12 09:36:55;;;;;;;5.95;3.88;;;26.30;63.00;;;;;;10095430;28;20062;-64
2023/06/12 09:41:49;;;;;;;4.35;3.67;;;26.50;63.00;;;;;;10090913;28;20558;-62
2023/06/12 09:46:41;;;;;;;5.75;3.50;;;26.50;62.70;;;;;;10079963;28;20028;-64
2023/06/12 09:51:32;;;;;;;5.20;3.78;;;26.50;62.70;;;;;;10085551;28;20028;-61
2023/06/12 09:56:25;;;;;;;5.63;4.10;;;26.90;62.40;;;;;;10079474;28;20044;-62
2023/06/12 10:01:19;;;;;;;4.80;4.28;;;27.00;62.20;;;;;;10098313;28;20045;-62
2023/06/12 10:06:13;;;;;;;6.20;4.30;;;27.10;61.40;;;;;;10094383;28;20033;-61
2023/06/12 10:11:04;;;;;;;;;;;27.20;61.10;;;;;;10078122;28;20256;-66
2023/06/12 10:15:55;;;;;;;5.45;3.63;;;27.10;60.80;;;;;;10087522;28;20482;-63
2023/06/12 10:20:49;;;;;;;8.02;3.90;;;27.30;60.60;;;;;;10089035;28;20049;-64
2023/06/12 10:25:40;;;;;;;4.78;3.85;;;27.40;60.40;;;;;;10098896;28;20502;-64
2023/06/12 10:30:30;;;;;;;4.22;3.67;;;27.20;60.20;;;;;;10097134;28;20080;-63
2023/06/12 10:35:31;;;;;;;4.07;3.15;;;27.40;60.00;;;;;;10097362;28;20430;-63
2023/06/12 10:40:23;;;;;;;4.10;3.67;;;27.60;59.20;;;;;;10095727;28;20035;-62
2023/06/12 10:45:28;;;;;;;3.70;3.40;;;27.50;59.20;;;;;;10096445;28;20572;-62
2023/06/12 10:50:24;;;;;;;4.82;4.03;;;27.70;58.40;;;;;;10094622;28;20521;-62
2023/06/12 10:55:20;;;;;;;4.78;3.75;;;27.90;58.20;;;;;;10091851;28;20550;-61
2023/06/12 11:00:16;;;;;;;4.68;3.88;;;28.20;57.80;;;;;;10095854;28;20493;-63
2023/06/12 11:05:08;;;;;;;4.65;4.10;;;28.10;57.40;;;;;;10073371;28;20057;-64
2023/06/12 11:10:08;;;;;;;5.70;3.90;;;28.20;57.10;;;;;;10090850;28;20033;-64
2023/06/12 11:14:59;;;;;;;6.32;4.13;;;28.00;56.80;;;;;;10025655;22;20058;-68
2023/06/12 11:19:59;;;;;;;6.25;4.18;;;28.00;56.60;;;;;;10003957;28;20095;-68
2023/06/12 11:24:49;;;;;;;5.32;3.55;;;28.10;56.10;;;;;;9998330;28;20050;-68
2023/06/12 11:29:40;;;;;;;5.80;3.08;;;28.50;55.80;;;;;;9997486;28;20431;-71
2023/06/12 11:34:35;;;;;;;10.05;4.22;;;28.50;55.50;;;;;;9988849;28;20038;-70
2023/06/12 11:39:25;;;;;;;3.55;3.03;;;28.90;55.00;;;;;;10001283;28;20041;-69
2023/06/12 11:44:16;;;;;;;5.43;3.38;;;28.90;54.60;;;;;;10010734;28;20045;-71
2023/06/12 11:49:07;;;;;;;4.30;2.95;;;29.00;54.30;;;;;;10007548;28;20426;-70
2023/06/12 11:53:59;;;;;;;5.22;3.05;;;29.10;53.90;;;;;;10014959;28;20042;-70
2023/06/12 11:58:52;;;;;;;5.05;3.85;;;29.20;53.70;;;;;;10008802;28;20022;-68
2023/06/12 12:03:46;;;;;;;5.22;3.80;;;29.10;53.70;;;;;;10024344;28;20439;-68
2023/06/12 12:08:36;;;;;;;6.35;3.83;;;29.20;54.40;;;;;;10025414;28;20025;-71
2023/06/12 12:13:27;;;;;;;7.68;4.13;;;29.20;53.90;;;;;;10023518;28;20057;-68
2023/06/12 12:18:18;;;;;;;8.30;5.07;;;29.60;54.10;;;;;;10021382;28;20289;-73
2023/06/12 12:23:12;;;;;;;3.88;3.47;;;29.90;54.20;;;;;;10011928;28;20079;-70
2023/06/12 12:28:03;;;;;;;4.47;3.85;;;30.10;54.20;;;;;;10018633;28;20507;-70
2023/06/12 12:32:56;;;;;;;4.38;3.88;;;30.20;54.00;;;;;;10022035;28;20180;-68
2023/06/12 12:37:48;;;;;;;4.55;3.63;;;30.40;54.00;;;;;;10021844;28;20037;-70
2023/06/12 12:42:46;;;;;;;4.43;3.97;;;30.50;53.60;;;;;;10022549;28;20042;-72
2023/06/12 12:47:41;;;;;;;4.93;3.90;;;30.80;53.50;;;;;;10018301;28;20036;-71
2023/06/12 12:52:32;;;;;;;4.97;3.70;;;31.50;53.20;;;;;;10020415;28;20117;-73
2023/06/12 12:57:22;;;;;;;3.45;3.15;;;32.00;53.00;;;;;;10021187;28;20125;-73
2023/06/12 13:02:13;;;;;;;5.38;4.07;;;32.90;52.40;;;;;;10021161;28;20030;-71
2023/06/12 13:07:04;;;;;;;5.13;3.37;;;33.30;51.80;;;;;;10020407;28;20117;-74
2023/06/12 13:11:56;;;;;;;5.40;3.83;;;34.00;51.40;;;;;;10018460;28;20054;-73
2023/06/12 13:16:46;;;;;;;4.43;3.50;;;34.50;50.70;;;;;;10022026;28;20041;-72
2023/06/12 13:21:39;;;;;;;3.67;3.37;;;35.00;50.30;;;;;;10020399;28;20117;-72
2023/06/12 13:26:31;;;;;;;4.50;3.72;;;35.20;49.70;;;;;;10016356;28;20034;-69
2023/06/12 13:31:21;;;;;;;4.10;3.42;;;35.80;49.50;;;;;;10020555;28;20032;-72
2023/06/12 13:36:12;;;;;;;3.88;3.47;;;36.00;48.60;;;;;;10019455;28;20050;-71
2023/06/12 13:41:02;;;;;;;;;;;36.00;48.20;;;;;;10018908;28;20029;-72
2023/06/12 13:45:57;;;;;;;6.07;3.45;;;36.10;47.20;;;;;;10019204;28;19920;-70
2023/06/12 13:50:48;;;;;;;4.22;3.70;;;36.50;47.50;;;;;;10019271;28;20042;-69
2023/06/12 13:55:39;;;;;;;;;;;36.80;47.00;;;;;;10018963;28;20084;-71
2023/06/12 14:00:30;;;;;;;3.87;3.30;;;37.30;45.60;;;;;;10018692;28;20446;-69
2023/06/12 14:05:21;;;;;;;4.72;3.58;;;37.30;46.10;;;;;;10018947;28;20057;-71
2023/06/12 14:10:12;;;;;;;3.97;3.10;;;38.00;46.30;;;;;;10012262;28;20041;-76
2023/06/12 14:15:04;;;;;;;3.90;3.50;;;38.10;45.00;;;;;;10017876;28;20370;-72
2023/06/12 14:19:56;;;;;;;3.88;3.50;;;38.10;44.60;;;;;;10018956;28;20022;-72
2023/06/12 14:24:46;;;;;;;3.85;3.45;;;37.60;44.20;;;;;;10019472;28;20030;-72
2023/06/12 14:29:37;;;;;;;3.67;3.38;;;37.20;43.90;;;;;;10018215;28;20491;-72
2023/06/12 14:34:28;;;;;;;4.93;3.38;;;37.10;43.80;;;;;;10017740;28;21014;-66
2023/06/12 14:39:19;;;;;;;4.90;3.40;;;37.30;43.50;;;;;;10017629;28;20029;-77
2023/06/12 14:44:09;;;;;;;3.97;3.17;;;37.10;43.40;;;;;;10019796;28;20030;-74
2023/06/12 14:49:00;;;;;;;3.58;3.17;;;37.20;43.20;;;;;;10033515;28;20045;-79
2023/06/12 14:53:50;;;;;;;4.75;3.40;;;37.40;42.90;;;;;;10019853;28;20034;-76
2023/06/12 14:58:41;;;;;;;4.65;3.38;;;37.30;42.50;;;;;;10019228;28;20030;-76
2023/06/12 15:03:32;;;;;;;3.70;3.35;;;37.70;42.70;;;;;;10019683;28;20029;-71
2023/06/12 15:08:29;;;;;;;5.05;3.35;;;38.10;42.70;;;;;;10020393;28;20045;-70
2023/06/12 15:13:19;;;;;;;3.53;3.22;;;37.60;42.50;;;;;;10021525;28;20402;-71
2023/06/12 15:18:10;;;;;;;4.28;3.55;;;37.70;42.60;;;;;;10017128;28;20476;-69
2023/06/12 15:23:01;;;;;;;4.05;3.65;;;37.60;42.50;;;;;;10020641;28;20033;-69
2023/06/12 15:27:52;;;;;;;;;;;37.30;43.10;;;;;;10017717;28;20026;-70
2023/06/12 15:32:45;;;;;;;4.20;3.03;;;37.10;42.20;;;;;;10020373;28;19927;-69
2023/06/12 15:37:37;;;;;;;4.68;3.63;;;37.40;42.40;;;;;;10016798;28;20046;-70
2023/06/12 15:42:28;;;;;;;4.93;3.20;;;38.40;41.80;;;;;;10016517;28;20043;-71
2023/06/12 15:47:19;;;;;;;;;;;38.50;41.60;;;;;;10018611;28;20500;-70
2023/06/12 15:52:10;;;;;;;9.77;4.03;;;38.40;41.00;;;;;;10005298;28;19972;-71
2023/06/12 15:57:00;;;;;;;6.00;4.05;;;38.50;41.30;;;;;;10011400;28;20034;-70
2023/06/12 16:01:58;;;;;;;4.32;3.92;;;40.00;40.80;;;;;;10028869;28;20201;-73
2023/06/12 16:06:48;;;;;;;7.40;3.60;;;40.40;40.20;;;;;;10030076;28;20040;-71
2023/06/12 16:11:39;;;;;;;5.47;3.40;;;41.20;39.80;;;;;;10023550;28;20052;-72
2023/06/12 16:16:30;;;;;;;3.80;3.50;;;41.40;39.50;;;;;;10018741;28;20049;-69
2023/06/12 16:21:20;;;;;;;4.00;3.60;;;42.30;39.00;;;;;;10030593;28;20026;-72
2023/06/12 16:26:11;;;;;;;3.70;3.40;;;42.50;38.40;;;;;;10025653;28;20464;-74
2023/06/12 16:31:05;;;;;;;4.70;4.00;;;42.50;38.30;;;;;;10020264;28;20123;-73
2023/06/12 16:35:56;;;;;;;4.22;3.03;;;42.30;38.20;;;;;;10028222;28;20069;-73
2023/06/12 16:40:47;;;;;;;4.57;3.60;;;41.70;38.10;;;;;;10021856;28;20037;-75
2023/06/12 16:45:39;;;;;;;4.60;3.60;;;41.50;38.30;;;;;;10025302;28;20299;-72
2023/06/12 16:50:33;;;;;;;5.13;4.03;;;42.80;37.90;;;;;;10021732;28;20184;-72
2023/06/12 16:55:23;;;;;;;4.25;3.30;;;42.60;37.90;;;;;;10021050;28;20030;-73
2023/06/12 17:00:16;;;;;;;4.05;3.30;;;42.20;38.30;;;;;;10021423;28;20109;-71
2023/06/12 17:05:07;;;;;;;4.80;3.35;;;41.70;38.00;;;;;;10019683;28;20411;-70
2023/06/12 17:10:02;;;;;;;4.55;3.42;;;41.10;38.20;;;;;;10019913;28;20037;-72
2023/06/12 17:14:53;;;;;;;4.03;3.63;;;41.00;38.10;;;;;;10020200;28;20077;-75
2023/06/12 17:19:44;;;;;;;4.03;3.70;;;40.60;38.20;;;;;;10020219;28;20499;-67
2023/06/12 17:24:35;;;;;;;4.47;3.80;;;40.10;38.50;;;;;;10018773;28;20030;-67
2023/06/12 17:29:26;;;;;;;3.78;3.17;;;39.20;38.80;;;;;;10020071;28;20496;-71
2023/06/12 17:34:18;;;;;;;4.43;3.47;;;39.00;39.00;;;;;;10051167;23;20099;-64
2023/06/12 17:39:08;;;;;;;4.22;3.47;;;39.40;38.90;;;;;;10059397;28;20112;-61
2023/06/12 17:44:01;;;;;;;4.25;3.85;;;39.80;38.80;;;;;;10059631;28;20120;-63
2023/06/12 17:48:52;;;;;;;3.97;3.45;;;39.60;39.00;;;;;;10058906;28;20033;-65
2023/06/12 17:53:43;;;;;;;3.97;3.58;;;39.10;39.40;;;;;;10058705;28;20381;-63
2023/06/12 17:58:33;;;;;;;;;;;38.40;39.90;;;;;;10058254;28;20025;-65
2023/06/12 18:03:26;;;;;;;4.57;3.88;;;37.40;40.40;;;;;;10052736;28;19917;-62
2023/06/12 18:08:16;;;;;;;;;;;35.30;41.70;;;;;;10058308;28;20038;-62
2023/06/12 18:13:07;;;;;;;3.78;3.22;;;33.50;42.60;;;;;;10047700;28;19913;-63
2023/06/12 18:17:58;;;;;;;3.90;3.40;;;32.70;42.80;;;;;;10057756;28;20479;-63
2023/06/12 18:22:48;;;;;;;4.78;3.78;;;32.30;43.00;;;;;;10058032;28;20071;-63
2023/06/12 18:27:39;;;;;;;4.55;3.55;;;31.70;43.60;;;;;;10059290;28;20029;-63
2023/06/12 18:32:30;;;;;;;5.05;3.42;;;31.30;44.00;;;;;;10054838;28;20050;-63
2023/06/12 18:37:21;;;;;;;5.78;3.35;;;31.30;44.10;;;;;;10056205;28;20033;-63
2023/06/12 18:42:11;;;;;;;7.00;3.85;;;31.10;44.40;;;;;;10056423;28;20165;-60
2023/06/12 18:47:04;;;;;;;6.68;3.47;;;30.70;44.90;;;;;;10054978;28;20053;-62
2023/06/12 18:51:55;;;;;;;4.15;3.35;;;30.70;44.90;;;;;;10057186;28;20063;-63
2023/06/12 18:56:46;;;;;;;4.40;3.30;;;30.60;45.20;;;;;;10057688;28;20211;-63
2023/06/12 19:01:37;;;;;;;4.88;3.63;;;30.30;45.70;;;;;;10057713;28;20195;-59
2023/06/12 19:06:27;;;;;;;4.38;3.97;;;30.20;45.70;;;;;;10055921;28;20052;-62
2023/06/12 19:11:18;;;;;;;5.82;3.75;;;30.10;45.80;;;;;;10053935;28;20033;-61
2023/06/12 19:16:09;;;;;;;7.63;4.20;;;30.00;46.10;;;;;;10057035;28;20124;-61
2023/06/12 19:20:59;;;;;;;6.50;4.18;;;29.90;46.30;;;;;;10055087;28;20021;-62
2023/06/12 19:25:50;;;;;;;5.32;3.50;;;29.80;46.40;;;;;;10055538;28;20056;-62
2023/06/12 19:30:41;;;;;;;5.95;3.55;;;29.60;46.70;;;;;;10054257;28;20360;-66
2023/06/12 19:35:32;;;;;;;7.78;4.30;;;29.50;46.90;;;;;;10055560;28;20503;-64
2023/06/12 19:40:23;;;;;;;7.75;4.07;;;29.30;47.30;;;;;;10053284;28;20029;-64
2023/06/12 19:45:15;;;;;;;6.18;4.32;;;29.20;47.80;;;;;;10055973;28;20044;-64
2023/06/12 19:50:08;;;;;;;6.68;3.60;;;29.20;48.20;;;;;;10057494;28;20021;-66
2023/06/12 19:54:59;;;;;;;5.85;3.67;;;29.20;48.40;;;;;;10048153;28;20069;-63
2023/06/12 19:59:51;;;;;;;5.18;3.92;;;29.10;49.30;;;;;;10070962;28;20048;-63
2023/06/12 20:04:42;;;;;;;4.20;3.55;;;29.00;49.10;;;;;;10044269;28;20053;-64
2023/06/12 20:09:33;;;;;;;9.25;5.07;;;29.00;49.30;;;;;;10042749;28;20481;-65
2023/06/12 20:14:23;;;;;;;4.25;3.53;;;29.00;49.40;;;;;;10046549;28;20037;-64
2023/06/12 20:19:14;;;;;;;6.20;3.83;;;28.90;49.60;;;;;;10047049;28;20141;-63
2023/06/12 20:24:08;;;;;;;4.63;3.85;;;28.90;49.70;;;;;;10066981;28;20124;-61
2023/06/12 20:28:59;;;;;;;5.57;3.80;;;28.70;49.90;;;;;;10062905;28;20021;-64
2023/06/12 20:33:50;;;;;;;8.15;3.45;;;28.70;50.00;;;;;;10060300;28;20057;-64
2023/06/12 20:38:41;;;;;;;5.05;3.33;;;28.70;50.10;;;;;;10059316;28;20395;-63
2023/06/12 20:43:31;;;;;;;5.72;4.05;;;28.50;50.50;;;;;;10045315;28;20045;-61
2023/06/12 20:48:22;;;;;;;7.00;4.50;;;28.50;50.50;;;;;;10053793;28;20499;-62
2023/06/12 20:53:13;;;;;;;6.85;4.05;;;28.40;50.60;;;;;;10073756;28;20039;-61
2023/06/12 20:58:04;;;;;;;5.30;3.90;;;28.20;50.80;;;;;;10041582;28;20067;-63
2023/06/12 21:02:55;;;;;;;4.07;3.38;;;28.10;50.90;;;;;;10058644;28;20041;-62
2023/06/12 21:07:45;;;;;;;5.60;3.53;;;28.10;51.10;;;;;;10052498;28;20036;-61
2023/06/12 21:12:36;;;;;;;4.25;3.53;;;28.00;51.20;;;;;;10056864;28;20118;-62
2023/06/12 21:17:27;;;;;;;4.85;3.47;;;27.90;51.30;;;;;;10042920;28;20101;-61
2023/06/12 21:22:37;;;;;;;5.75;4.18;;;27.90;51.50;;;;;;10026700;28;20045;-61
2023/06/12 21:27:27;;;;;;;5.88;3.38;;;27.80;51.70;;;;;;10045757;28;20538;-62
2023/06/12 21:32:18;;;;;;;5.80;4.05;;;27.60;51.70;;;;;;10053583;28;20065;-61
2023/06/12 21:37:08;;;;;;;5.47;3.35;;;27.30;52.50;;;;;;10046147;28;20029;-60
2023/06/12 21:41:59;;;;;;;7.43;4.95;;;27.30;51.90;;;;;;10048200;28;20487;-61
2023/06/12 21:46:50;;;;;;;4.97;4.10;;;27.20;52.10;;;;;;10038542;28;20674;-61
2023/06/12 21:51:42;;;;;;;5.85;4.15;;;27.10;53.00;;;;;;10043930;28;20495;-61
2023/06/12 21:56:32;;;;;;;3.97;3.35;;;27.00;52.40;;;;;;10030315;28;20530;-61
2023/06/12 22:01:23;;;;;;;4.05;3.53;;;27.00;52.50;;;;;;10052302;28;20033;-61
2023/06/12 22:06:14;;;;;;;8.80;5.47;;;26.90;52.60;;;;;;10056719;28;20048;-62
2023/06/12 22:11:04;;;;;;;4.20;3.78;;;26.80;52.80;;;;;;10058437;28;20113;-61
2023/06/12 22:15:55;;;;;;;6.30;3.30;;;26.80;52.90;;;;;;10056802;28;20025;-63
2023/06/12 22:20:46;;;;;;;6.85;4.10;;;26.70;52.90;;;;;;10057158;28;20040;-62
2023/06/12 22:25:37;;;;;;;4.25;3.38;;;26.50;53.20;;;;;;10059713;28;20092;-62
2023/06/12 22:30:29;;;;;;;4.53;3.20;;;26.60;53.30;;;;;;10090310;28;20039;-62
2023/06/12 22:35:19;;;;;;;5.38;3.17;;;26.30;53.50;;;;;;10057068;28;20489;-61
2023/06/12 22:40:11;;;;;;;4.10;3.28;;;26.20;54.00;;;;;;10058239;28;20899;-61
2023/06/12 22:45:02;;;;;;;7.88;3.50;;;26.20;53.90;;;;;;10058330;28;20041;-62
2023/06/12 22:49:55;;;;;;;4.15;3.60;;;26.20;54.10;;;;;;10057600;28;20029;-60
2023/06/12 22:54:46;;;;;;;12.35;3.83;;;26.10;54.30;;;;;;10057477;28;20495;-61
2023/06/12 22:59:36;;;;;;;4.43;3.40;;;26.00;54.30;;;;;;10057305;28;20044;-61
2023/06/12 23:04:27;;;;;;;7.22;4.00;;;26.00;54.40;;;;;;10053380;28;20046;-62
2023/06/12 23:09:18;;;;;;;5.82;3.17;;;25.80;54.50;;;;;;10048414;28;20025;-61
2023/06/12 23:14:08;;;;;;;6.80;3.65;;;25.70;54.50;;;;;;10043936;28;20128;-61
2023/06/12 23:19:02;;;;;;;7.55;3.65;;;25.60;54.80;;;;;;10046362;28;20029;-61
2023/06/12 23:23:52;;;;;;;4.40;3.30;;;25.50;54.80;;;;;;10031063;28;20438;-61
2023/06/12 23:28:43;;;;;;;4.75;3.53;;;25.40;55.10;;;;;;10052958;28;20022;-62
2023/06/12 23:33:33;;;;;;;6.97;3.83;;;25.20;55.30;;;;;;10054883;28;20419;-60
2023/06/12 23:38:24;;;;;;;5.82;3.63;;;25.20;55.50;;;;;;10057406;28;20090;-62
2023/06/12 23:43:15;;;;;;;4.13;3.30;;;25.20;55.70;;;;;;10056802;28;20407;-64
2023/06/12 23:48:06;;;;;;;4.75;3.65;;;25.10;55.70;;;;;;10055288;28;20418;-60
2023/06/12 23:52:56;;;;;;;6.15;3.88;;;25.00;55.70;;;;;;10055666;28;20195;-61
2023/06/12 23:57:47;;;;;;;7.18;3.75;;;25.00;55.90;;;;;;10063374;28;20534;-61
